sensor_id;sensor_type;location;lat;lon;timestamp;temperature;humidity
15707;DHT22;7953;54.302;10.128;2023-04-28T00:00:35;2.90;99.90
15707;DHT22;7953;54.302;10.128;2023-04-28T00:03:02;2.80;99.90
15707;DHT22;7953;54.302;10.128;2023-04-28T00:05:29;2.80;99.90
15707;DHT22;7953;54.302;10.128;2023-04-28T00:07:57;2.80;99.90
15707;DHT22;7953;54.302;10.128;2023-04-28T00:10:24;2.80;99.90
15707;DHT22;7953;54.302;10.128;2023-04-28T00:12:51;2.80;99.90
15707;DHT22;7953;54.302;10.128;2023-04-28T00:15:18;2.80;99.90
15707;DHT22;7953;54.302;10.128;2023-04-28T00:17:45;2.80;99.90
15707;DHT22;7953;54.302;10.128;2023-04-28T00:20:12;2.80;99.90
15707;DHT22;7953;54.302;10.128;2023-04-28T00:22:39;2.80;99.90
15707;DHT22;7953;54.302;10.128;2023-04-28T00:25:08;2.70;99.90
15707;DHT22;7953;54.302;10.128;2023-04-28T00:27:35;2.70;99.90
15707;DHT22;7953;54.302;10.128;2023-04-28T00:30:02;2.70;99.90
15707;DHT22;7953;54.302;10.128;2023-04-28T00:32:29;2.70;99.90
15707;DHT22;7953;54.302;10.128;2023-04-28T00:34:56;2.70;99.90
15707;DHT22;7953;54.302;10.128;2023-04-28T00:37:23;2.70;99.90
15707;DHT22;7953;54.302;10.128;2023-04-28T00:39:54;2.70;99.90
15707;DHT22;7953;54.302;10.128;2023-04-28T00:42:22;2.70;99.90
15707;DHT22;7953;54.302;10.128;2023-04-28T00:44:49;2.60;99.90
15707;DHT22;7953;54.302;10.128;2023-04-28T00:47:17;2.60;99.90
15707;DHT22;7953;54.302;10.128;2023-04-28T00:49:44;2.60;99.90
15707;DHT22;7953;54.302;10.128;2023-04-28T00:52:12;2.60;99.90
15707;DHT22;7953;54.302;10.128;2023-04-28T00:54:39;2.60;99.90
15707;DHT22;7953;54.302;10.128;2023-04-28T00:57:07;2.60;99.90
15707;DHT22;7953;54.302;10.128;2023-04-28T00:59:36;2.60;99.90
15707;DHT22;7953;54.302;10.128;2023-04-28T01:02:04;2.60;99.90
15707;DHT22;7953;54.302;10.128;2023-04-28T01:04:32;2.60;99.90
15707;DHT22;7953;54.302;10.128;2023-04-28T01:07:00;2.60;99.90
15707;DHT22;7953;54.302;10.128;2023-04-28T01:09:28;2.50;99.90
15707;DHT22;7953;54.302;10.128;2023-04-28T01:11:55;2.50;99.90
15707;DHT22;7953;54.302;10.128;2023-04-28T01:14:22;2.50;99.90
15707;DHT22;7953;54.302;10.128;2023-04-28T01:16:51;2.50;99.90
15707;DHT22;7953;54.302;10.128;2023-04-28T01:19:20;2.50;99.90
15707;DHT22;7953;54.302;10.128;2023-04-28T01:21:48;2.50;99.90
15707;DHT22;7953;54.302;10.128;2023-04-28T01:24:16;2.50;99.90
15707;DHT22;7953;54.302;10.128;2023-04-28T01:26:43;2.40;99.90
15707;DHT22;7953;54.302;10.128;2023-04-28T01:29:10;2.40;99.90
15707;DHT22;7953;54.302;10.128;2023-04-28T01:31:37;2.40;99.90
15707;DHT22;7953;54.302;10.128;2023-04-28T01:34:04;2.40;99.90
15707;DHT22;7953;54.302;10.128;2023-04-28T01:36:31;2.30;99.90
15707;DHT22;7953;54.302;10.128;2023-04-28T01:38:58;2.30;99.90
15707;DHT22;7953;54.302;10.128;2023-04-28T01:41:26;2.30;99.90
15707;DHT22;7953;54.302;10.128;2023-04-28T01:43:53;2.20;99.90
15707;DHT22;7953;54.302;10.128;2023-04-28T01:46:20;2.20;99.90
15707;DHT22;7953;54.302;10.128;2023-04-28T01:48:47;2.20;99.90
15707;DHT22;7953;54.302;10.128;2023-04-28T01:51:13;2.20;99.90
15707;DHT22;7953;54.302;10.128;2023-04-28T01:53:40;2.20;99.90
15707;DHT22;7953;54.302;10.128;2023-04-28T01:56:07;2.20;99.90
15707;DHT22;7953;54.302;10.128;2023-04-28T01:58:35;2.20;99.90
15707;DHT22;7953;54.302;10.128;2023-04-28T02:01:02;2.20;99.90
15707;DHT22;7953;54.302;10.128;2023-04-28T02:03:29;2.20;99.90
15707;DHT22;7953;54.302;10.128;2023-04-28T02:05:56;2.20;99.90
15707;DHT22;7953;54.302;10.128;2023-04-28T02:08:23;2.20;99.90
15707;DHT22;7953;54.302;10.128;2023-04-28T02:10:50;2.20;99.90
15707;DHT22;7953;54.302;10.128;2023-04-28T02:13:17;2.20;99.90
15707;DHT22;7953;54.302;10.128;2023-04-28T02:15:45;2.20;99.90
15707;DHT22;7953;54.302;10.128;2023-04-28T02:18:12;2.20;99.90
15707;DHT22;7953;54.302;10.128;2023-04-28T02:20:39;2.20;99.90
15707;DHT22;7953;54.302;10.128;2023-04-28T02:23:06;2.20;99.90
15707;DHT22;7953;54.302;10.128;2023-04-28T02:25:33;2.20;99.90
15707;DHT22;7953;54.302;10.128;2023-04-28T02:28:00;2.20;99.90
15707;DHT22;7953;54.302;10.128;2023-04-28T02:30:27;2.20;99.90
15707;DHT22;7953;54.302;10.128;2023-04-28T02:32:56;2.20;99.90
15707;DHT22;7953;54.302;10.128;2023-04-28T02:35:22;2.30;99.90
15707;DHT22;7953;54.302;10.128;2023-04-28T02:37:49;2.30;99.90
15707;DHT22;7953;54.302;10.128;2023-04-28T02:40:17;2.20;99.90
15707;DHT22;7953;54.302;10.128;2023-04-28T02:42:44;2.20;99.90
15707;DHT22;7953;54.302;10.128;2023-04-28T02:45:11;2.20;99.90
15707;DHT22;7953;54.302;10.128;2023-04-28T02:47:38;2.20;99.90
15707;DHT22;7953;54.302;10.128;2023-04-28T02:50:08;2.20;99.90
15707;DHT22;7953;54.302;10.128;2023-04-28T02:52:35;2.20;99.90
15707;DHT22;7953;54.302;10.128;2023-04-28T02:55:03;2.20;99.90
15707;DHT22;7953;54.302;10.128;2023-04-28T02:57:29;2.20;99.90
15707;DHT22;7953;54.302;10.128;2023-04-28T02:59:56;2.20;99.90
15707;DHT22;7953;54.302;10.128;2023-04-28T03:02:23;2.20;99.90
15707;DHT22;7953;54.302;10.128;2023-04-28T03:04:50;2.20;99.90
15707;DHT22;7953;54.302;10.128;2023-04-28T03:07:18;2.30;99.90
15707;DHT22;7953;54.302;10.128;2023-04-28T03:09:45;2.30;99.90
15707;DHT22;7953;54.302;10.128;2023-04-28T03:12:13;2.30;99.90
15707;DHT22;7953;54.302;10.128;2023-04-28T03:14:40;2.20;99.90
15707;DHT22;7953;54.302;10.128;2023-04-28T03:17:07;2.20;99.90
15707;DHT22;7953;54.302;10.128;2023-04-28T03:19:36;2.20;99.90
15707;DHT22;7953;54.302;10.128;2023-04-28T03:22:02;2.20;99.90
15707;DHT22;7953;54.302;10.128;2023-04-28T03:24:31;2.20;99.90
15707;DHT22;7953;54.302;10.128;2023-04-28T03:26:58;2.20;99.90
15707;DHT22;7953;54.302;10.128;2023-04-28T03:29:24;2.20;99.90
15707;DHT22;7953;54.302;10.128;2023-04-28T03:31:51;2.20;99.90
15707;DHT22;7953;54.302;10.128;2023-04-28T03:34:18;2.20;99.90
15707;DHT22;7953;54.302;10.128;2023-04-28T03:36:45;2.20;99.90
15707;DHT22;7953;54.302;10.128;2023-04-28T03:39:12;2.10;99.90
15707;DHT22;7953;54.302;10.128;2023-04-28T03:41:41;2.10;99.90
15707;DHT22;7953;54.302;10.128;2023-04-28T03:44:07;2.10;99.90
15707;DHT22;7953;54.302;10.128;2023-04-28T03:46:34;2.10;99.90
15707;DHT22;7953;54.302;10.128;2023-04-28T03:49:02;2.10;99.90
15707;DHT22;7953;54.302;10.128;2023-04-28T03:51:29;2.10;99.90
15707;DHT22;7953;54.302;10.128;2023-04-28T03:53:57;2.10;99.90
15707;DHT22;7953;54.302;10.128;2023-04-28T03:56:24;2.10;99.90
15707;DHT22;7953;54.302;10.128;2023-04-28T03:58:52;2.00;99.90
15707;DHT22;7953;54.302;10.128;2023-04-28T04:01:19;2.10;99.90
15707;DHT22;7953;54.302;10.128;2023-04-28T04:03:46;2.10;99.90
15707;DHT22;7953;54.302;10.128;2023-04-28T04:06:13;2.00;99.90
15707;DHT22;7953;54.302;10.128;2023-04-28T04:08:40;2.00;99.90
15707;DHT22;7953;54.302;10.128;2023-04-28T04:11:07;2.00;99.90
15707;DHT22;7953;54.302;10.128;2023-04-28T04:13:34;2.10;99.90
15707;DHT22;7953;54.302;10.128;2023-04-28T04:16:03;2.10;99.90
15707;DHT22;7953;54.302;10.128;2023-04-28T04:18:30;2.00;99.90
15707;DHT22;7953;54.302;10.128;2023-04-28T04:20:57;2.00;99.90
15707;DHT22;7953;54.302;10.128;2023-04-28T04:23:24;2.10;99.90
15707;DHT22;7953;54.302;10.128;2023-04-28T04:25:51;2.00;99.90
15707;DHT22;7953;54.302;10.128;2023-04-28T04:28:18;2.10;99.90
15707;DHT22;7953;54.302;10.128;2023-04-28T04:30:45;2.00;99.90
15707;DHT22;7953;54.302;10.128;2023-04-28T04:33:13;2.10;99.90
15707;DHT22;7953;54.302;10.128;2023-04-28T04:35:40;2.10;99.90
15707;DHT22;7953;54.302;10.128;2023-04-28T04:38:08;2.10;99.90
15707;DHT22;7953;54.302;10.128;2023-04-28T04:40:35;2.10;99.90
15707;DHT22;7953;54.302;10.128;2023-04-28T04:43:02;2.20;99.90
15707;DHT22;7953;54.302;10.128;2023-04-28T04:45:29;2.10;99.90
15707;DHT22;7953;54.302;10.128;2023-04-28T04:47:56;2.10;99.90
15707;DHT22;7953;54.302;10.128;2023-04-28T04:50:26;2.20;99.90
15707;DHT22;7953;54.302;10.128;2023-04-28T04:52:53;2.20;99.90
15707;DHT22;7953;54.302;10.128;2023-04-28T04:55:23;2.20;99.90
15707;DHT22;7953;54.302;10.128;2023-04-28T04:57:50;2.20;99.90
15707;DHT22;7953;54.302;10.128;2023-04-28T05:00:20;2.20;99.90
15707;DHT22;7953;54.302;10.128;2023-04-28T05:02:50;2.30;99.90
15707;DHT22;7953;54.302;10.128;2023-04-28T05:05:19;2.30;99.90
15707;DHT22;7953;54.302;10.128;2023-04-28T05:07:50;2.30;99.90
15707;DHT22;7953;54.302;10.128;2023-04-28T05:10:18;2.30;99.90
15707;DHT22;7953;54.302;10.128;2023-04-28T05:12:49;2.40;99.90
15707;DHT22;7953;54.302;10.128;2023-04-28T05:15:18;2.50;99.90
15707;DHT22;7953;54.302;10.128;2023-04-28T05:17:44;2.50;99.90
15707;DHT22;7953;54.302;10.128;2023-04-28T05:20:14;2.70;99.90
15707;DHT22;7953;54.302;10.128;2023-04-28T05:22:41;2.70;99.90
15707;DHT22;7953;54.302;10.128;2023-04-28T05:25:12;2.80;99.90
15707;DHT22;7953;54.302;10.128;2023-04-28T05:27:41;2.90;99.90
15707;DHT22;7953;54.302;10.128;2023-04-28T05:30:11;2.90;99.90
15707;DHT22;7953;54.302;10.128;2023-04-28T05:32:40;3.00;99.90
15707;DHT22;7953;54.302;10.128;2023-04-28T05:35:07;3.10;99.90
15707;DHT22;7953;54.302;10.128;2023-04-28T05:37:41;3.20;99.90
15707;DHT22;7953;54.302;10.128;2023-04-28T05:40:13;3.30;99.90
15707;DHT22;7953;54.302;10.128;2023-04-28T05:42:40;3.40;99.90
15707;DHT22;7953;54.302;10.128;2023-04-28T05:45:11;3.60;99.90
15707;DHT22;7953;54.302;10.128;2023-04-28T05:47:38;3.80;99.90
15707;DHT22;7953;54.302;10.128;2023-04-28T05:50:11;4.00;99.90
15707;DHT22;7953;54.302;10.128;2023-04-28T05:52:41;4.20;99.90
15707;DHT22;7953;54.302;10.128;2023-04-28T05:55:08;4.40;99.90
15707;DHT22;7953;54.302;10.128;2023-04-28T05:57:42;4.60;99.90
15707;DHT22;7953;54.302;10.128;2023-04-28T06:00:12;4.80;99.90
15707;DHT22;7953;54.302;10.128;2023-04-28T06:02:39;4.90;99.90
15707;DHT22;7953;54.302;10.128;2023-04-28T06:05:09;5.10;99.90
15707;DHT22;7953;54.302;10.128;2023-04-28T06:07:36;5.30;99.90
15707;DHT22;7953;54.302;10.128;2023-04-28T06:10:03;5.60;99.90
15707;DHT22;7953;54.302;10.128;2023-04-28T06:12:31;5.70;99.90
15707;DHT22;7953;54.302;10.128;2023-04-28T06:14:59;5.90;99.90
15707;DHT22;7953;54.302;10.128;2023-04-28T06:17:26;6.10;99.90
15707;DHT22;7953;54.302;10.128;2023-04-28T06:19:55;6.10;99.90
15707;DHT22;7953;54.302;10.128;2023-04-28T06:22:26;6.20;99.90
15707;DHT22;7953;54.302;10.128;2023-04-28T06:24:53;6.40;99.90
15707;DHT22;7953;54.302;10.128;2023-04-28T06:27:23;6.40;99.90
15707;DHT22;7953;54.302;10.128;2023-04-28T06:29:52;6.60;99.90
15707;DHT22;7953;54.302;10.128;2023-04-28T06:32:22;6.60;99.90
15707;DHT22;7953;54.302;10.128;2023-04-28T06:34:49;6.70;99.90
15707;DHT22;7953;54.302;10.128;2023-04-28T06:37:16;6.80;99.90
15707;DHT22;7953;54.302;10.128;2023-04-28T06:39:43;6.80;99.90
15707;DHT22;7953;54.302;10.128;2023-04-28T06:42:13;6.80;99.90
15707;DHT22;7953;54.302;10.128;2023-04-28T06:44:48;6.90;99.90
15707;DHT22;7953;54.302;10.128;2023-04-28T06:47:14;6.80;99.90
15707;DHT22;7953;54.302;10.128;2023-04-28T06:49:43;6.80;99.90
15707;DHT22;7953;54.302;10.128;2023-04-28T06:52:12;6.80;99.90
15707;DHT22;7953;54.302;10.128;2023-04-28T06:54:39;6.80;99.90
15707;DHT22;7953;54.302;10.128;2023-04-28T06:57:06;6.90;99.90
15707;DHT22;7953;54.302;10.128;2023-04-28T06:59:33;6.90;99.90
15707;DHT22;7953;54.302;10.128;2023-04-28T07:02:00;7.10;99.90
15707;DHT22;7953;54.302;10.128;2023-04-28T07:04:27;7.20;99.90
15707;DHT22;7953;54.302;10.128;2023-04-28T07:06:56;7.30;99.90
15707;DHT22;7953;54.302;10.128;2023-04-28T07:09:23;7.40;99.90
15707;DHT22;7953;54.302;10.128;2023-04-28T07:11:50;7.50;99.90
15707;DHT22;7953;54.302;10.128;2023-04-28T07:14:17;7.70;99.90
15707;DHT22;7953;54.302;10.128;2023-04-28T07:16:43;7.80;99.90
15707;DHT22;7953;54.302;10.128;2023-04-28T07:19:10;8.10;99.90
15707;DHT22;7953;54.302;10.128;2023-04-28T07:21:37;8.20;99.90
15707;DHT22;7953;54.302;10.128;2023-04-28T07:24:06;8.20;99.90
15707;DHT22;7953;54.302;10.128;2023-04-28T07:26:33;8.40;99.90
15707;DHT22;7953;54.302;10.128;2023-04-28T07:29:00;8.40;99.90
15707;DHT22;7953;54.302;10.128;2023-04-28T07:31:27;8.50;99.90
15707;DHT22;7953;54.302;10.128;2023-04-28T07:33:54;8.50;99.90
15707;DHT22;7953;54.302;10.128;2023-04-28T07:36:21;8.60;99.90
15707;DHT22;7953;54.302;10.128;2023-04-28T07:38:48;8.60;99.90
15707;DHT22;7953;54.302;10.128;2023-04-28T07:41:17;8.70;99.90
15707;DHT22;7953;54.302;10.128;2023-04-28T07:43:44;8.90;99.90
15707;DHT22;7953;54.302;10.128;2023-04-28T07:46:11;9.00;99.90
15707;DHT22;7953;54.302;10.128;2023-04-28T07:48:38;9.20;99.90
15707;DHT22;7953;54.302;10.128;2023-04-28T07:51:05;9.30;99.90
15707;DHT22;7953;54.302;10.128;2023-04-28T07:53:32;9.40;99.90
15707;DHT22;7953;54.302;10.128;2023-04-28T07:56:00;9.60;99.90
15707;DHT22;7953;54.302;10.128;2023-04-28T07:58:28;9.70;99.90
15707;DHT22;7953;54.302;10.128;2023-04-28T08:00:55;9.80;99.90
15707;DHT22;7953;54.302;10.128;2023-04-28T08:03:22;10.00;99.90
15707;DHT22;7953;54.302;10.128;2023-04-28T08:05:49;10.20;99.90
15707;DHT22;7953;54.302;10.128;2023-04-28T08:08:16;10.40;99.90
15707;DHT22;7953;54.302;10.128;2023-04-28T08:10:43;10.70;99.90
15707;DHT22;7953;54.302;10.128;2023-04-28T08:13:10;11.00;99.90
15707;DHT22;7953;54.302;10.128;2023-04-28T08:15:38;11.20;99.90
15707;DHT22;7953;54.302;10.128;2023-04-28T08:18:06;11.40;99.90
15707;DHT22;7953;54.302;10.128;2023-04-28T08:20:33;11.70;99.90
15707;DHT22;7953;54.302;10.128;2023-04-28T08:23:00;12.00;99.90
15707;DHT22;7953;54.302;10.128;2023-04-28T08:25:28;12.10;99.90
15707;DHT22;7953;54.302;10.128;2023-04-28T08:27:55;12.30;99.90
15707;DHT22;7953;54.302;10.128;2023-04-28T08:30:23;12.40;99.90
15707;DHT22;7953;54.302;10.128;2023-04-28T08:32:51;12.50;99.90
15707;DHT22;7953;54.302;10.128;2023-04-28T08:35:18;12.60;99.90
15707;DHT22;7953;54.302;10.128;2023-04-28T08:37:45;12.60;99.90
15707;DHT22;7953;54.302;10.128;2023-04-28T08:40:14;12.80;99.90
15707;DHT22;7953;54.302;10.128;2023-04-28T08:42:41;12.90;99.90
15707;DHT22;7953;54.302;10.128;2023-04-28T08:45:12;13.10;99.90
15707;DHT22;7953;54.302;10.128;2023-04-28T08:47:40;13.00;99.90
15707;DHT22;7953;54.302;10.128;2023-04-28T08:50:15;13.00;99.90
15707;DHT22;7953;54.302;10.128;2023-04-28T08:52:46;12.90;99.90
15707;DHT22;7953;54.302;10.128;2023-04-28T08:55:13;12.90;99.90
15707;DHT22;7953;54.302;10.128;2023-04-28T08:57:43;13.10;99.90
15707;DHT22;7953;54.302;10.128;2023-04-28T09:00:11;13.40;99.90
15707;DHT22;7953;54.302;10.128;2023-04-28T09:02:38;13.60;99.90
15707;DHT22;7953;54.302;10.128;2023-04-28T09:05:07;13.70;99.90
15707;DHT22;7953;54.302;10.128;2023-04-28T09:07:35;13.70;99.90
15707;DHT22;7953;54.302;10.128;2023-04-28T09:10:16;13.80;99.90
15707;DHT22;7953;54.302;10.128;2023-04-28T09:12:43;13.80;99.90
15707;DHT22;7953;54.302;10.128;2023-04-28T09:15:10;13.80;99.90
15707;DHT22;7953;54.302;10.128;2023-04-28T09:17:51;13.70;99.90
15707;DHT22;7953;54.302;10.128;2023-04-28T09:20:21;13.70;99.90
15707;DHT22;7953;54.302;10.128;2023-04-28T09:22:51;13.80;99.90
15707;DHT22;7953;54.302;10.128;2023-04-28T09:25:19;13.80;99.90
15707;DHT22;7953;54.302;10.128;2023-04-28T09:27:47;13.80;99.90
15707;DHT22;7953;54.302;10.128;2023-04-28T09:30:14;13.80;99.90
15707;DHT22;7953;54.302;10.128;2023-04-28T09:32:41;13.80;99.90
15707;DHT22;7953;54.302;10.128;2023-04-28T09:35:09;13.90;99.90
15707;DHT22;7953;54.302;10.128;2023-04-28T09:37:36;14.10;99.90
15707;DHT22;7953;54.302;10.128;2023-04-28T09:40:06;14.10;99.90
15707;DHT22;7953;54.302;10.128;2023-04-28T09:42:34;14.50;99.90
15707;DHT22;7953;54.302;10.128;2023-04-28T09:45:01;14.80;99.90
15707;DHT22;7953;54.302;10.128;2023-04-28T09:47:29;14.60;99.90
15707;DHT22;7953;54.302;10.128;2023-04-28T09:49:58;14.50;99.90
15707;DHT22;7953;54.302;10.128;2023-04-28T09:52:26;14.70;99.90
15707;DHT22;7953;54.302;10.128;2023-04-28T09:54:54;15.00;99.90
15707;DHT22;7953;54.302;10.128;2023-04-28T09:57:23;15.30;99.90
15707;DHT22;7953;54.302;10.128;2023-04-28T09:59:52;15.50;99.90
15707;DHT22;7953;54.302;10.128;2023-04-28T10:02:20;15.80;99.90
15707;DHT22;7953;54.302;10.128;2023-04-28T10:04:48;16.20;99.90
15707;DHT22;7953;54.302;10.128;2023-04-28T10:07:16;16.30;99.90
15707;DHT22;7953;54.302;10.128;2023-04-28T10:09:45;16.40;99.90
15707;DHT22;7953;54.302;10.128;2023-04-28T10:12:15;16.40;99.90
15707;DHT22;7953;54.302;10.128;2023-04-28T10:14:44;16.30;99.90
15707;DHT22;7953;54.302;10.128;2023-04-28T10:17:12;16.60;99.90
15707;DHT22;7953;54.302;10.128;2023-04-28T10:19:40;16.60;99.90
15707;DHT22;7953;54.302;10.128;2023-04-28T10:22:19;16.70;99.90
15707;DHT22;7953;54.302;10.128;2023-04-28T10:27:47;16.70;99.90
15707;DHT22;7953;54.302;10.128;2023-04-28T10:30:17;17.00;99.90
15707;DHT22;7953;54.302;10.128;2023-04-28T10:32:44;17.00;99.90
15707;DHT22;7953;54.302;10.128;2023-04-28T10:35:39;16.70;99.90
15707;DHT22;7953;54.302;10.128;2023-04-28T10:38:09;16.60;99.90
15707;DHT22;7953;54.302;10.128;2023-04-28T10:40:38;16.40;99.90
15707;DHT22;7953;54.302;10.128;2023-04-28T10:43:06;16.20;99.90
15707;DHT22;7953;54.302;10.128;2023-04-28T10:46:03;16.20;99.90
15707;DHT22;7953;54.302;10.128;2023-04-28T10:49:03;16.20;99.90
15707;DHT22;7953;54.302;10.128;2023-04-28T10:51:34;16.20;99.90
15707;DHT22;7953;54.302;10.128;2023-04-28T10:54:18;16.30;99.90
15707;DHT22;7953;54.302;10.128;2023-04-28T10:57:17;16.00;99.90
15707;DHT22;7953;54.302;10.128;2023-04-28T10:59:44;16.10;99.90
15707;DHT22;7953;54.302;10.128;2023-04-28T11:02:38;16.40;99.90
15707;DHT22;7953;54.302;10.128;2023-04-28T11:05:18;15.90;99.90
15707;DHT22;7953;54.302;10.128;2023-04-28T11:11:16;15.60;99.90
15707;DHT22;7953;54.302;10.128;2023-04-28T11:13:44;15.70;99.90
15707;DHT22;7953;54.302;10.128;2023-04-28T11:16:14;15.60;99.90
15707;DHT22;7953;54.302;10.128;2023-04-28T11:18:50;15.70;99.90
15707;DHT22;7953;54.302;10.128;2023-04-28T11:21:17;15.60;99.90
15707;DHT22;7953;54.302;10.128;2023-04-28T11:23:45;15.60;99.90
15707;DHT22;7953;54.302;10.128;2023-04-28T11:26:12;15.40;99.90
15707;DHT22;7953;54.302;10.128;2023-04-28T11:28:47;15.60;99.90
15707;DHT22;7953;54.302;10.128;2023-04-28T11:31:14;15.80;99.90
15707;DHT22;7953;54.302;10.128;2023-04-28T11:33:45;15.90;99.90
15707;DHT22;7953;54.302;10.128;2023-04-28T11:36:28;16.20;99.90
15707;DHT22;7953;54.302;10.128;2023-04-28T11:38:57;16.40;99.90
15707;DHT22;7953;54.302;10.128;2023-04-28T11:41:25;16.50;99.90
15707;DHT22;7953;54.302;10.128;2023-04-28T11:43:52;16.70;99.90
15707;DHT22;7953;54.302;10.128;2023-04-28T11:46:20;16.70;99.90
15707;DHT22;7953;54.302;10.128;2023-04-28T11:48:48;16.80;99.90
15707;DHT22;7953;54.302;10.128;2023-04-28T11:51:32;16.80;99.90
15707;DHT22;7953;54.302;10.128;2023-04-28T11:54:00;17.30;99.90
15707;DHT22;7953;54.302;10.128;2023-04-28T11:56:28;17.60;99.90
15707;DHT22;7953;54.302;10.128;2023-04-28T11:59:02;17.20;99.90
15707;DHT22;7953;54.302;10.128;2023-04-28T12:01:30;17.30;99.90
15707;DHT22;7953;54.302;10.128;2023-04-28T12:03:57;17.00;99.90
15707;DHT22;7953;54.302;10.128;2023-04-28T12:06:24;16.70;99.90
15707;DHT22;7953;54.302;10.128;2023-04-28T12:08:54;16.30;99.90
15707;DHT22;7953;54.302;10.128;2023-04-28T12:11:22;16.40;99.90
15707;DHT22;7953;54.302;10.128;2023-04-28T12:14:05;16.70;99.90
15707;DHT22;7953;54.302;10.128;2023-04-28T12:16:40;17.00;99.90
15707;DHT22;7953;54.302;10.128;2023-04-28T12:19:12;17.30;99.90
15707;DHT22;7953;54.302;10.128;2023-04-28T12:21:40;17.70;99.90
15707;DHT22;7953;54.302;10.128;2023-04-28T12:24:19;17.70;99.90
15707;DHT22;7953;54.302;10.128;2023-04-28T12:26:47;17.70;99.90
15707;DHT22;7953;54.302;10.128;2023-04-28T12:29:39;17.70;99.90
15707;DHT22;7953;54.302;10.128;2023-04-28T12:32:07;17.40;99.90
15707;DHT22;7953;54.302;10.128;2023-04-28T12:34:35;17.10;99.90
15707;DHT22;7953;54.302;10.128;2023-04-28T12:37:03;17.10;99.90
15707;DHT22;7953;54.302;10.128;2023-04-28T12:39:33;17.30;99.90
15707;DHT22;7953;54.302;10.128;2023-04-28T12:42:01;17.40;99.90
15707;DHT22;7953;54.302;10.128;2023-04-28T12:44:31;17.50;99.90
15707;DHT22;7953;54.302;10.128;2023-04-28T12:47:01;17.50;99.90
15707;DHT22;7953;54.302;10.128;2023-04-28T12:49:28;17.20;99.90
15707;DHT22;7953;54.302;10.128;2023-04-28T12:51:55;17.10;99.90
15707;DHT22;7953;54.302;10.128;2023-04-28T12:54:22;16.80;99.90
15707;DHT22;7953;54.302;10.128;2023-04-28T12:56:51;16.90;99.90
15707;DHT22;7953;54.302;10.128;2023-04-28T12:59:19;16.70;99.90
15707;DHT22;7953;54.302;10.128;2023-04-28T13:01:46;16.80;99.90
15707;DHT22;7953;54.302;10.128;2023-04-28T13:04:13;16.80;99.90
15707;DHT22;7953;54.302;10.128;2023-04-28T13:06:40;16.90;99.90
15707;DHT22;7953;54.302;10.128;2023-04-28T13:09:09;17.00;99.90
15707;DHT22;7953;54.302;10.128;2023-04-28T13:11:36;17.20;99.90
15707;DHT22;7953;54.302;10.128;2023-04-28T13:14:04;17.20;99.90
15707;DHT22;7953;54.302;10.128;2023-04-28T13:16:31;16.90;99.90
15707;DHT22;7953;54.302;10.128;2023-04-28T13:18:59;16.50;99.90
15707;DHT22;7953;54.302;10.128;2023-04-28T13:21:26;16.50;99.90
15707;DHT22;7953;54.302;10.128;2023-04-28T13:23:53;16.20;99.90
15707;DHT22;7953;54.302;10.128;2023-04-28T13:26:20;15.90;99.90
15707;DHT22;7953;54.302;10.128;2023-04-28T13:28:48;15.90;99.90
15707;DHT22;7953;54.302;10.128;2023-04-28T13:31:17;16.00;99.90
15707;DHT22;7953;54.302;10.128;2023-04-28T13:33:44;16.00;99.90
15707;DHT22;7953;54.302;10.128;2023-04-28T13:36:11;16.20;99.90
15707;DHT22;7953;54.302;10.128;2023-04-28T13:38:38;16.10;99.90
15707;DHT22;7953;54.302;10.128;2023-04-28T13:41:05;16.10;99.90
15707;DHT22;7953;54.302;10.128;2023-04-28T13:43:32;16.10;99.90
15707;DHT22;7953;54.302;10.128;2023-04-28T13:45:59;16.10;99.90
15707;DHT22;7953;54.302;10.128;2023-04-28T13:48:27;16.10;99.90
15707;DHT22;7953;54.302;10.128;2023-04-28T13:50:54;16.10;99.90
15707;DHT22;7953;54.302;10.128;2023-04-28T13:53:21;16.10;99.90
15707;DHT22;7953;54.302;10.128;2023-04-28T13:55:49;16.00;99.90
15707;DHT22;7953;54.302;10.128;2023-04-28T13:58:18;15.90;99.90
15707;DHT22;7953;54.302;10.128;2023-04-28T14:00:45;15.90;99.90
15707;DHT22;7953;54.302;10.128;2023-04-28T14:03:12;15.90;99.90
15707;DHT22;7953;54.302;10.128;2023-04-28T14:05:41;15.90;99.90
15707;DHT22;7953;54.302;10.128;2023-04-28T14:08:08;15.90;99.90
15707;DHT22;7953;54.302;10.128;2023-04-28T14:10:36;15.90;99.90
15707;DHT22;7953;54.302;10.128;2023-04-28T14:13:02;15.90;99.90
15707;DHT22;7953;54.302;10.128;2023-04-28T14:15:29;15.60;99.90
15707;DHT22;7953;54.302;10.128;2023-04-28T14:17:57;15.50;99.90
15707;DHT22;7953;54.302;10.128;2023-04-28T14:20:24;15.30;99.90
15707;DHT22;7953;54.302;10.128;2023-04-28T14:22:52;15.30;99.90
15707;DHT22;7953;54.302;10.128;2023-04-28T14:25:19;15.20;99.90
15707;DHT22;7953;54.302;10.128;2023-04-28T14:27:47;15.30;99.90
15707;DHT22;7953;54.302;10.128;2023-04-28T14:30:14;15.40;99.90
15707;DHT22;7953;54.302;10.128;2023-04-28T14:32:41;15.50;99.90
15707;DHT22;7953;54.302;10.128;2023-04-28T14:35:10;15.60;99.90
15707;DHT22;7953;54.302;10.128;2023-04-28T14:37:38;15.70;99.90
15707;DHT22;7953;54.302;10.128;2023-04-28T14:40:08;15.60;99.90
15707;DHT22;7953;54.302;10.128;2023-04-28T14:42:35;15.60;99.90
15707;DHT22;7953;54.302;10.128;2023-04-28T14:45:03;15.50;99.90
15707;DHT22;7953;54.302;10.128;2023-04-28T14:47:31;15.50;99.90
15707;DHT22;7953;54.302;10.128;2023-04-28T14:49:58;15.50;99.90
15707;DHT22;7953;54.302;10.128;2023-04-28T14:52:25;15.50;99.90
15707;DHT22;7953;54.302;10.128;2023-04-28T14:54:54;15.40;99.90
15707;DHT22;7953;54.302;10.128;2023-04-28T14:57:23;15.30;99.90
15707;DHT22;7953;54.302;10.128;2023-04-28T14:59:50;15.30;99.90
15707;DHT22;7953;54.302;10.128;2023-04-28T15:02:18;15.30;99.90
15707;DHT22;7953;54.302;10.128;2023-04-28T15:04:46;15.30;99.90
15707;DHT22;7953;54.302;10.128;2023-04-28T15:07:13;15.30;99.90
15707;DHT22;7953;54.302;10.128;2023-04-28T15:09:40;15.10;99.90
15707;DHT22;7953;54.302;10.128;2023-04-28T15:12:08;15.00;99.90
15707;DHT22;7953;54.302;10.128;2023-04-28T15:14:36;14.90;99.90
15707;DHT22;7953;54.302;10.128;2023-04-28T15:17:03;14.90;99.90
15707;DHT22;7953;54.302;10.128;2023-04-28T15:19:30;14.70;99.90
15707;DHT22;7953;54.302;10.128;2023-04-28T15:21:57;14.70;99.90
15707;DHT22;7953;54.302;10.128;2023-04-28T15:24:24;14.70;99.90
15707;DHT22;7953;54.302;10.128;2023-04-28T15:26:52;14.60;99.90
15707;DHT22;7953;54.302;10.128;2023-04-28T15:29:19;14.60;99.90
15707;DHT22;7953;54.302;10.128;2023-04-28T15:31:48;14.50;99.90
15707;DHT22;7953;54.302;10.128;2023-04-28T15:34:15;14.50;99.90
15707;DHT22;7953;54.302;10.128;2023-04-28T15:36:43;14.40;99.90
15707;DHT22;7953;54.302;10.128;2023-04-28T15:39:11;14.30;99.90
15707;DHT22;7953;54.302;10.128;2023-04-28T15:41:38;14.30;99.90
15707;DHT22;7953;54.302;10.128;2023-04-28T15:44:05;14.20;99.90
15707;DHT22;7953;54.302;10.128;2023-04-28T15:46:32;14.20;99.90
15707;DHT22;7953;54.302;10.128;2023-04-28T15:49:00;14.20;99.90
15707;DHT22;7953;54.302;10.128;2023-04-28T15:51:27;14.10;99.90